Time;durP1;ratioP1;P1;durP2;ratioP2;P2;SDS_P1;SDS_P2;PMS_P1;PMS_P2;Temp;Humidity;BMP_temperature;BMP_pressure;BME280_temperature;BME280_humidity;BME280_pressure;Samples;Min_cycle;Max_cycle;Signal;HPM_P1;HPM_P2
2021/05/11 00:02:00;;;;;;;4.90;1.90;;;;;14.00;100249.00;;;;10481525;28;20201;-74
2021/05/11 00:07:02;;;;;;;6.67;1.97;;;;;13.90;100259.00;;;;10481735;28;20267;-74
2021/05/11 00:12:04;;;;;;;9.10;2.67;;;;;13.90;100258.00;;;;10481428;28;20197;-74
2021/05/11 00:17:06;;;;;;;6.23;1.97;;;;;13.80;100251.00;;;;10514830;28;20185;-74
2021/05/11 00:22:07;;;;;;;6.87;2.20;;;;;13.70;100249.00;;;;10498579;28;20193;-74
2021/05/11 00:27:09;;;;;;;5.57;2.20;;;;;13.50;100245.00;;;;10497686;28;20209;-74
2021/05/11 00:32:10;;;;;;;6.00;2.43;;;;;13.40;100245.00;;;;10514731;28;20221;-74
2021/05/11 00:37:12;;;;;;;4.90;2.00;;;;;13.30;100249.00;;;;10463870;28;20189;-74
2021/05/11 00:42:13;;;;;;;3.73;1.80;;;;;13.30;100254.00;;;;10463218;28;20215;-74
2021/05/11 00:47:14;;;;;;;7.70;2.20;;;;;13.20;100258.00;;;;10438886;28;20708;-74
2021/05/11 00:52:17;;;;;;;4.77;1.90;;;;;13.10;100259.00;;;;10455170;28;20193;-74
2021/05/11 00:57:19;;;;;;;6.63;2.33;;;;;13.00;100262.00;;;;10454777;28;20271;-73
2021/05/11 01:02:21;;;;;;;10.23;3.33;;;;;12.80;100260.00;;;;10497121;28;20182;-76
2021/05/11 01:07:23;;;;;;;7.07;2.13;;;;;12.70;100267.00;;;;10496775;28;20217;-76
2021/05/11 01:12:25;;;;;;;5.27;2.87;;;;;12.50;100271.00;;;;10498181;28;20247;-76
2021/05/11 01:17:33;;;;;;;7.80;2.50;;;;;12.40;100265.00;;;;10513885;28;20541;-76
2021/05/11 01:54:28;;;;;;;8.63;2.50;;;;;11.50;100283.00;;;;10465756;28;20284;-76
2021/05/11 02:26:05;;;;;;;5.43;2.20;;;;;10.90;100268.00;;;;10468970;28;20630;-76
2021/05/11 02:31:06;;;;;;;6.00;1.97;;;;;10.80;100275.00;;;;10485742;28;20200;-76
2021/05/11 02:36:08;;;;;;;6.20;2.50;;;;;10.70;100278.00;;;;10485418;28;20190;-77
2021/05/11 02:41:10;;;;;;;4.70;2.20;;;;;10.60;100278.00;;;;10474047;28;20203;-76
2021/05/11 02:46:11;;;;;;;4.93;2.17;;;;;10.60;100289.00;;;;10485605;28;20585;-76
2021/05/11 02:51:12;;;;;;;4.33;1.73;;;;;10.60;100283.00;;;;10485170;28;20227;-76
2021/05/11 02:56:14;;;;;;;7.33;2.20;;;;;10.70;100281.00;;;;10451831;28;20204;-76
2021/05/11 03:01:16;;;;;;;7.33;2.43;;;;;10.70;100279.00;;;;10484112;28;20189;-76
2021/05/11 03:06:18;;;;;;;8.47;2.50;;;;;10.60;100276.00;;;;10484324;28;20240;-76
2021/05/11 03:11:20;;;;;;;5.40;3.10;;;;;10.60;100286.00;;;;10484082;28;20657;-76
2021/05/11 03:16:22;;;;;;;6.17;2.93;;;;;10.60;100295.00;;;;10483714;28;20196;-76
2021/05/11 03:21:24;;;;;;;9.77;2.93;;;;;10.50;100288.00;;;;10517338;28;20607;-76
2021/05/11 03:26:26;;;;;;;10.43;2.70;;;;;10.50;100285.00;;;;10517309;28;20209;-77
2021/05/11 03:31:27;;;;;;;10.30;3.00;;;;;10.50;100287.00;;;;10467083;28;20523;-76
2021/05/11 03:36:28;;;;;;;8.33;3.43;;;;;10.40;100307.00;;;;10466254;28;20228;-76
2021/05/11 03:41:35;;;;;;;6.30;3.30;;;;;10.40;100316.00;;;;10482395;28;20204;-76
2021/05/11 03:46:38;;;;;;;5.07;2.30;;;;;10.30;100301.00;;;;10466522;28;20213;-76
2021/05/11 03:51:40;;;;;;;11.80;2.90;;;;;10.00;100296.00;;;;10449137;28;20202;-77
2021/05/11 03:56:42;;;;;;;4.90;2.67;;;;;9.80;100311.00;;;;10448905;28;20200;-76
2021/05/11 04:01:44;;;;;;;7.37;2.47;;;;;9.70;100311.00;;;;10449399;28;20255;-76
2021/05/11 04:06:46;;;;;;;8.63;3.10;;;;;9.70;100323.00;;;;10464289;28;20221;-76
2021/05/11 04:16:51;;;;;;;8.73;2.60;;;;;9.80;100314.00;;;;10464592;28;20188;-76
2021/05/11 04:21:55;;;;;;;7.47;3.33;;;;;9.90;100307.00;;;;10481747;28;20235;-76
2021/05/11 04:26:56;;;;;;;4.67;2.53;;;;;9.90;100303.00;;;;10480122;28;20216;-76
2021/05/11 04:31:58;;;;;;;3.10;2.07;;;;;10.00;100293.00;;;;10481099;28;20236;-76
2021/05/11 04:37:01;;;;;;;6.40;2.60;;;;;9.90;100302.00;;;;10499105;28;20587;-76
2021/05/11 04:42:03;;;;;;;9.47;3.53;;;;;9.90;100304.00;;;;10480509;28;20188;-76
2021/05/11 04:52:10;;;;;;;6.00;2.63;;;;;9.80;100307.00;;;;10464491;28;20649;-76
2021/05/11 04:57:12;;;;;;;5.33;2.30;;;;;9.80;100292.00;;;;10480612;28;20194;-76
2021/05/11 05:02:14;;;;;;;7.07;3.00;;;;;10.00;100290.00;;;;10463721;28;20789;-76
2021/05/11 05:07:15;;;;;;;4.63;2.80;;;;;10.30;100286.00;;;;10512390;28;20217;-76
2021/05/11 05:12:17;;;;;;;5.23;2.60;;;;;10.70;100283.00;;;;10496904;28;20193;-76
2021/05/11 05:17:22;;;;;;;7.97;2.83;;;;;11.20;100291.00;;;;10479774;28;20190;-76
2021/05/11 05:22:24;;;;;;;7.17;2.97;;;;;11.70;100306.00;;;;10447261;28;20194;-76
2021/05/11 05:27:37;;;;;;;7.40;3.30;;;;;12.30;100295.00;;;;10479815;28;20214;-76
2021/05/11 05:32:39;;;;;;;10.40;3.43;;;;;13.30;100301.00;;;;10496113;28;20194;-77
2021/05/11 05:37:42;;;;;;;7.63;2.73;;;;;14.00;100317.00;;;;10479322;28;20751;-77
2021/05/11 05:42:45;;;;;;;7.30;3.17;;;;;14.40;100317.00;;;;10487399;28;20649;-77
2021/05/11 05:47:50;;;;;;;6.03;2.53;;;;;14.80;100315.00;;;;10502700;28;20210;-77
2021/05/11 05:53:01;;;;;;;7.40;2.43;;;;;14.90;100308.00;;;;10447147;28;20190;-77
2021/05/11 05:58:03;;;;;;;5.77;2.80;;;;;15.10;100319.00;;;;10505192;28;20197;-77
2021/05/11 06:03:07;;;;;;;4.80;2.50;;;;;14.60;100314.00;;;;10505067;28;20669;-77
2021/05/11 06:08:08;;;;;;;7.10;2.80;;;;;14.40;100305.00;;;;10520551;28;20221;-77
2021/05/11 06:13:15;;;;;;;8.20;2.90;;;;;14.40;100300.00;;;;10520467;28;20201;-77
2021/05/11 06:18:17;;;;;;;5.63;2.67;;;;;14.30;100304.00;;;;10469256;28;20652;-77
2021/05/11 06:23:19;;;;;;;7.77;3.07;;;;;15.00;100296.00;;;;10486532;28;20296;-77
2021/05/11 06:28:23;;;;;;;6.90;2.80;;;;;16.00;100290.00;;;;10504515;28;20810;-77
2021/05/11 06:33:25;;;;;;;6.93;2.73;;;;;17.00;100288.00;;;;10458580;28;20206;-77
2021/05/11 06:38:27;;;;;;;7.57;2.87;;;;;18.00;100293.00;;;;10488270;28;20247;-77
2021/05/11 06:43:33;;;;;;;8.23;2.75;;;;;18.70;100286.00;;;;10454228;28;20256;-77
2021/05/11 06:48:45;;;;;;;6.50;2.63;;;;;19.60;100288.00;;;;10464472;28;20585;-77
2021/05/11 06:53:51;;;;;;;5.65;2.75;;;;;20.40;100288.00;;;;10487490;28;20331;-77
2021/05/11 06:58:53;;;;;;;4.40;3.10;;;;;20.60;100283.00;;;;10487895;28;20198;-77
2021/05/11 07:03:55;;;;;;;8.85;3.28;;;;;20.70;100280.00;;;;10471629;28;20534;-77
2021/05/11 07:09:04;;;;;;;6.10;3.58;;;;;21.00;100277.00;;;;10518712;28;20743;-78
2021/05/11 07:14:07;;;;;;;7.07;3.47;;;;;21.30;100269.00;;;;10480667;28;20851;-77
2021/05/11 07:19:09;;;;;;;9.38;3.63;;;;;21.50;100266.00;;;;10485898;28;20189;-77
2021/05/11 07:24:11;;;;;;;7.95;3.42;;;;;21.40;100275.00;;;;10506028;28;20645;-78
2021/05/11 07:34:19;;;;;;;9.00;3.13;;;;;20.90;100267.00;;;;10505929;28;20193;-77
2021/05/11 07:39:23;;;;;;;8.43;3.03;;;;;20.30;100272.00;;;;10520430;28;20190;-77
2021/05/11 07:44:25;;;;;;;9.63;3.25;;;;;20.00;100271.00;;;;10503114;28;20267;-77
2021/05/11 07:49:51;;;;;;;8.98;2.70;;;;;19.90;100268.00;;;;10468705;28;20263;-77
2021/05/11 08:15:57;;;;;;;10.80;2.67;;;;;21.60;100246.00;;;;10485925;28;20244;-77
2021/05/11 08:31:40;;;;;;;8.75;2.50;;;;;22.90;100246.00;;;;10468609;28;20185;-78
2021/05/11 08:36:43;;;;;;;8.65;2.85;;;;;23.10;100244.00;;;;10469594;28;20186;-77
2021/05/11 08:41:45;;;;;;;5.68;2.20;;;;;23.20;100253.00;;;;10468690;28;20197;-77
2021/05/11 08:46:47;;;;;;;4.55;2.00;;;;;23.30;100235.00;;;;10485539;28;20243;-77
2021/05/11 08:51:59;;;;;;;7.40;2.35;;;;;23.30;100247.00;;;;10459852;28;20189;-78
2021/05/11 09:23:58;;;;;;;10.30;4.18;;;;;21.50;100267.00;;;;10499603;28;20197;-78
2021/05/11 09:29:05;;;;;;;9.50;4.03;;;;;21.50;100269.00;;;;10532912;28;20201;-77
2021/05/11 10:10:47;;;;;;;7.68;3.83;;;;;20.80;100260.00;;;;10482963;28;20240;-77
2021/05/11 10:50:52;;;;;;;6.20;2.50;;;;;27.00;100194.00;;;;10455235;28;20719;-77
2021/05/11 10:55:54;;;;;;;6.75;2.58;;;;;27.60;100195.00;;;;10491264;28;20208;-77
2021/05/11 11:00:58;;;;;;;7.20;3.10;;;;;27.60;100193.00;;;;10463478;28;20198;-77
2021/05/11 11:06:04;;;;;;;7.28;2.95;;;;;27.60;100187.00;;;;10486634;28;20914;-77
2021/05/11 11:11:14;;;;;;;7.50;2.95;;;;;28.20;100206.00;;;;10470183;28;20267;-78
2021/05/11 11:16:17;;;;;;;6.55;2.85;;;;;26.60;100202.00;;;;10463763;28;20764;-77
2021/05/11 11:26:27;;;;;;;6.82;2.60;;;;;26.50;100200.00;;;;10502302;28;20715;-77
2021/05/11 11:31:33;;;;;;;8.93;2.42;;;;;26.50;100194.00;;;;10469426;28;20193;-77
2021/05/11 11:36:36;;;;;;;5.82;2.58;;;;;26.60;100192.00;;;;10484858;28;20233;-77
2021/05/11 11:41:39;;;;;;;9.45;2.67;;;;;26.40;100197.00;;;;10517996;28;20221;-77
2021/05/11 11:46:50;;;;;;;9.02;2.97;;;;;26.50;100184.00;;;;10501807;28;20569;-77
2021/05/11 11:52:03;;;;;;;6.30;2.65;;;;;26.40;100195.00;;;;10484703;28;20299;-77
2021/05/11 12:03:10;;;;;;;8.45;3.10;;;;;26.70;100183.00;;;;10435157;28;20194;-77
2021/05/11 12:08:27;;;;;;;7.90;2.70;;;;;27.50;100190.00;;;;10466802;28;20611;-77
2021/05/11 12:13:32;;;;;;;6.57;2.80;;;;;27.10;100197.00;;;;10479698;28;20205;-77
2021/05/11 12:18:35;;;;;;;4.88;2.45;;;;;26.90;100185.00;;;;10478440;28;20186;-77
2021/05/11 12:23:37;;;;;;;6.25;2.53;;;;;26.90;100196.00;;;;10466645;28;20232;-77
2021/05/11 12:28:41;;;;;;;5.63;2.15;;;;;26.90;100198.00;;;;10500652;28;20220;-77
2021/05/11 12:33:44;;;;;;;3.55;1.75;;;;;26.60;100212.00;;;;10466064;28;20244;-77
2021/05/11 12:38:51;;;;;;;8.40;3.10;;;;;25.80;100222.00;;;;10465932;28;20190;-77
2021/05/11 12:43:53;;;;;;;4.65;2.30;;;;;24.50;100221.00;;;;10466234;28;20201;-77
2021/05/11 12:49:03;;;;;;;4.68;2.25;;;;;23.50;100219.00;;;;10481048;28;20213;-77
2021/05/11 12:54:25;;;;;;;6.55;2.25;;;;;22.50;100230.00;;;;10499176;28;20955;-77
2021/05/11 13:25:57;;;;;;;4.97;2.20;;;;;14.90;100352.00;;;;10515350;28;20625;-77
2021/05/11 13:31:05;;;;;;;9.03;2.63;;;;;14.40;100367.00;;;;10521751;28;20193;-76
2021/05/11 13:36:14;;;;;;;11.80;3.50;;;;;14.00;100364.00;;;;10539971;28;20195;-77
2021/05/11 13:41:17;;;;;;;6.23;2.33;;;;;13.80;100366.00;;;;10487725;28;20200;-77
2021/05/11 13:46:19;;;;;;;6.17;2.50;;;;;13.70;100371.00;;;;10495378;28;20230;-76
2021/05/11 13:51:20;;;;;;;4.70;2.27;;;;;13.60;100383.00;;;;10469197;28;20198;-77
2021/05/11 14:06:32;;;;;;;4.67;2.30;;;;;13.90;100396.00;;;;10504550;28;20220;-76
2021/05/11 14:11:36;;;;;;;4.97;2.30;;;;;13.70;100387.00;;;;10485812;28;20197;-77
2021/05/11 14:16:40;;;;;;;5.07;3.10;;;;;13.80;100402.00;;;;10504589;28;20190;-78
2021/05/11 14:21:42;;;;;;;4.77;3.00;;;;;14.20;100389.00;;;;10487314;28;20239;-78
2021/05/11 14:26:45;;;;;;;9.17;3.40;;;;;14.40;100386.00;;;;10502305;28;20795;-77
2021/05/11 14:31:48;;;;;;;5.47;2.90;;;;;14.70;100372.00;;;;10486359;28;20216;-77
2021/05/11 14:36:53;;;;;;;5.60;2.40;;;;;15.00;100374.00;;;;10506601;28;20213;-78
2021/05/11 14:41:57;;;;;;;8.57;3.27;;;;;15.50;100367.00;;;;10488085;28;20689;-78
2021/05/11 14:46:59;;;;;;;6.27;2.90;;;;;15.60;100358.00;;;;10504171;28;20248;-78
2021/05/11 14:52:01;;;;;;;6.27;2.40;;;;;15.80;100352.00;;;;10483637;28;20760;-77
2021/05/11 14:57:04;;;;;;;5.27;2.27;;;;;16.20;100347.00;;;;10426601;28;20194;-77
2021/05/11 15:02:06;;;;;;;5.87;2.27;;;;;16.40;100350.00;;;;10476594;28;20205;-78
2021/05/11 15:07:08;;;;;;;4.33;1.50;;;;;16.80;100354.00;;;;10450154;28;20209;-77
2021/05/11 15:12:12;;;;;;;1.70;1.60;;;;;17.50;100348.00;;;;10414006;28;20182;-77
2021/05/11 15:22:25;;;;;;;4.00;1.87;;;;;17.50;100354.00;;;;10459288;28;20237;-78
2021/05/11 15:27:28;;;;;;;4.27;1.57;;;;;17.40;100348.00;;;;10512547;28;20292;-78
2021/05/11 15:32:44;;;;;;;6.20;1.63;;;;;17.10;100339.00;;;;10471795;28;20276;-78
2021/05/11 15:37:49;;;;;;;5.43;1.63;;;;;16.70;100322.00;;;;10478954;28;20196;-78
2021/05/11 15:42:52;;;;;;;5.00;2.10;;;;;16.60;100332.00;;;;10478793;28;20194;-78
2021/05/11 15:48:01;;;;;;;4.67;1.70;;;;;16.60;100356.00;;;;10486622;28;20256;-78
2021/05/11 15:53:06;;;;;;;2.17;1.60;;;;;16.40;100368.00;;;;10461654;28;20541;-78
2021/05/11 15:58:09;;;;;;;3.90;1.90;;;;;16.30;100395.00;;;;10485279;28;20669;-78
2021/05/11 16:03:11;;;;;;;4.50;1.77;;;;;16.50;100396.00;;;;10499272;28;20197;-78
2021/05/11 16:08:16;;;;;;;2.63;2.03;;;;;17.00;100391.00;;;;10458469;28;20608;-78
2021/05/11 16:13:21;;;;;;;3.50;2.10;;;;;17.20;100390.00;;;;10467680;28;20196;-78
2021/05/11 16:18:28;;;;;;;3.43;2.10;;;;;17.20;100379.00;;;;10452069;28;20186;-78
2021/05/11 16:23:30;;;;;;;4.23;1.90;;;;;17.40;100383.00;;;;10486281;28;20241;-77
2021/05/11 16:28:32;;;;;;;5.93;2.57;;;;;17.60;100389.00;;;;10507991;28;20217;-78
2021/05/11 16:33:35;;;;;;;4.33;3.13;;;;;18.00;100378.00;;;;10443274;28;20197;-77
2021/05/11 16:38:38;;;;;;;2.63;2.00;;;;;18.50;100391.00;;;;10444237;28;20866;-77
2021/05/11 16:43:39;;;;;;;4.30;2.43;;;;;18.70;100390.00;;;;10478031;28;20236;-78
2021/05/11 16:48:41;;;;;;;2.90;2.50;;;;;18.50;100392.00;;;;10460582;28;20248;-76
2021/05/11 16:53:45;;;;;;;4.47;2.40;;;;;18.10;100407.00;;;;10458314;28;20288;-76
2021/05/11 16:58:48;;;;;;;6.93;2.80;;;;;17.50;100421.00;;;;10452352;28;20198;-76
2021/05/11 17:03:50;;;;;;;5.40;2.70;;;;;17.10;100429.00;;;;10448934;28;20194;-77
2021/05/11 17:08:52;;;;;;;4.57;2.40;;;;;16.70;100444.00;;;;10488213;28;20260;-77
2021/05/11 17:13:56;;;;;;;5.33;2.47;;;;;16.10;100455.00;;;;10495198;28;20193;-77
2021/05/11 17:18:58;;;;;;;4.57;2.10;;;;;15.70;100464.00;;;;10477561;28;20204;-76
2021/05/11 17:24:03;;;;;;;4.97;2.70;;;;;15.30;100470.00;;;;10460039;28;20189;-77
2021/05/11 17:29:08;;;;;;;6.40;2.90;;;;;15.10;100470.00;;;;10496157;28;20684;-77
2021/05/11 17:34:11;;;;;;;4.37;3.30;;;;;15.00;100469.00;;;;10474775;28;20181;-77
2021/05/11 17:39:13;;;;;;;8.57;5.53;;;;;14.90;100483.00;;;;10510923;28;20202;-77
2021/05/11 17:44:15;;;;;;;5.23;3.00;;;;;14.70;100472.00;;;;10496603;28;20190;-77
2021/05/11 17:49:17;;;;;;;5.97;3.47;;;;;14.60;100486.00;;;;10481732;28;20217;-77
2021/05/11 17:54:19;;;;;;;10.80;3.47;;;;;14.40;100501.00;;;;10488759;28;20190;-77
2021/05/11 17:59:21;;;;;;;6.23;3.40;;;;;14.00;100502.00;;;;10474520;28;20197;-77
2021/05/11 18:04:23;;;;;;;8.60;3.50;;;;;13.50;100518.00;;;;10491152;28;20210;-77
2021/05/11 18:09:26;;;;;;;7.83;2.77;;;;;13.10;100520.00;;;;10483122;28;20209;-76
2021/05/11 18:14:27;;;;;;;5.93;3.23;;;;;12.80;100518.00;;;;10472215;28;20197;-76
2021/05/11 18:19:29;;;;;;;4.00;2.33;;;;;12.70;100516.00;;;;10463449;28;20251;-76
2021/05/11 18:24:32;;;;;;;4.43;2.40;;;;;12.60;100526.00;;;;10485256;28;20186;-77
2021/05/11 18:29:34;;;;;;;6.20;2.50;;;;;12.50;100531.00;;;;10448350;28;20250;-77
2021/05/11 18:34:39;;;;;;;6.53;2.97;;;;;12.40;100544.00;;;;10452003;28;20196;-77
2021/05/11 18:39:41;;;;;;;6.70;3.23;;;;;12.30;100548.00;;;;10461899;28;20198;-77
2021/05/11 18:44:44;;;;;;;10.50;3.13;;;;;12.20;100550.00;;;;10503318;28;20197;-77
2021/05/11 18:49:46;;;;;;;11.00;3.80;;;;;12.20;100552.00;;;;10441624;28;20265;-78
2021/05/11 18:54:49;;;;;;;7.90;4.17;;;;;12.10;100544.00;;;;10447118;28;20210;-75
2021/05/11 18:59:51;;;;;;;7.00;4.73;;;;;12.20;100548.00;;;;10489394;28;20734;-78
2021/05/11 19:04:53;;;;;;;8.07;5.67;;;;;12.10;100539.00;;;;10438993;28;20252;-75
2021/05/11 19:09:55;;;;;;;8.07;4.73;;;;;12.00;100545.00;;;;10425416;28;20612;-75
2021/05/11 19:14:57;;;;;;;14.10;5.83;;;;;11.90;100549.00;;;;10435423;28;20198;-76
2021/05/11 19:19:58;;;;;;;8.97;5.17;;;;;11.90;100557.00;;;;10425021;28;20217;-75
2021/05/11 19:25:01;;;;;;;7.00;4.43;;;;;11.70;100558.00;;;;10408993;28;20191;-76
2021/05/11 19:30:04;;;;;;;13.30;5.83;;;;;11.70;100561.00;;;;10440350;28;20294;-76
2021/05/11 19:35:07;;;;;;;10.87;5.13;;;;;11.60;100574.00;;;;10422879;28;20210;-76
2021/05/11 19:40:10;;;;;;;10.37;5.40;;;;;11.50;100569.00;;;;10422869;28;20178;-76
2021/05/11 19:45:12;;;;;;;6.40;5.47;;;;;11.40;100579.00;;;;10431534;28;20190;-76
2021/05/11 19:50:14;;;;;;;11.13;5.77;;;;;11.30;100573.00;;;;10480625;28;20218;-76
2021/05/11 19:55:16;;;;;;;13.67;6.00;;;;;11.10;100587.00;;;;10515801;28;20194;-76
2021/05/11 20:00:18;;;;;;;9.50;6.63;;;;;11.10;100580.00;;;;10463047;28;20193;-77
2021/05/11 20:05:21;;;;;;;14.80;8.20;;;;;11.00;100579.00;;;;10450888;28;20307;-76
2021/05/11 20:10:24;;;;;;;11.37;8.33;;;;;10.90;100579.00;;;;10471466;28;20203;-77
2021/05/11 20:15:28;;;;;;;11.90;9.30;;;;;10.90;100580.00;;;;10476243;28;20202;-76
2021/05/11 20:20:29;;;;;;;14.00;9.67;;;;;10.80;100569.00;;;;10458471;28;20193;-76
2021/05/11 20:25:31;;;;;;;17.27;9.80;;;;;10.70;100567.00;;;;10464150;28;20197;-77
2021/05/11 20:30:33;;;;;;;14.27;9.57;;;;;10.70;100567.00;;;;10509929;28;20263;-76
2021/05/11 20:35:37;;;;;;;20.20;10.37;;;;;10.60;100570.00;;;;10475133;28;20209;-76
2021/05/11 20:40:38;;;;;;;16.03;11.07;;;;;10.60;100567.00;;;;10476476;28;20194;-76
2021/05/11 20:45:41;;;;;;;16.87;12.50;;;;;10.60;100586.00;;;;10449409;28;20256;-76
2021/05/11 20:50:43;;;;;;;20.53;13.33;;;;;10.70;100588.00;;;;10466183;28;20673;-78
2021/05/11 20:55:45;;;;;;;18.87;14.23;;;;;10.70;100592.00;;;;10501346;28;20193;-77
2021/05/11 21:00:47;;;;;;;21.27;13.90;;;;;10.80;100604.00;;;;10512389;28;20185;-77
2021/05/11 21:05:49;;;;;;;20.87;14.50;;;;;10.90;100610.00;;;;10539014;28;20214;-77
2021/05/11 21:10:52;;;;;;;20.27;14.63;;;;;11.00;100598.00;;;;10447826;28;20217;-77
2021/05/11 21:15:54;;;;;;;19.70;14.30;;;;;11.00;100593.00;;;;10456728;28;20192;-77
2021/05/11 21:20:57;;;;;;;19.87;15.07;;;;;11.10;100588.00;;;;10479649;28;20251;-77
2021/05/11 21:25:59;;;;;;;19.40;14.57;;;;;11.20;100597.00;;;;10472360;28;20197;-77
2021/05/11 21:31:02;;;;;;;21.03;13.70;;;;;11.20;100603.00;;;;10436631;28;20209;-77
2021/05/11 21:36:04;;;;;;;22.13;14.83;;;;;11.20;100604.00;;;;10479562;28;20687;-77
2021/05/11 21:41:24;;;;;;;19.53;15.43;;;;;11.20;100599.00;;;;10497259;28;20205;-77
2021/05/11 21:46:26;;;;;;;21.17;15.30;;;;;11.30;100598.00;;;;10461032;28;20616;-77
2021/05/11 21:51:28;;;;;;;16.80;11.83;;;;;11.30;100614.00;;;;10461163;28;20189;-77
2021/05/11 21:56:29;;;;;;;20.07;13.57;;;;;11.30;100620.00;;;;10491663;28;20197;-77
2021/05/11 22:01:35;;;;;;;16.50;13.20;;;;;11.30;100619.00;;;;10509006;28;20645;-77
2021/05/11 22:06:38;;;;;;;19.97;12.93;;;;;11.30;100610.00;;;;10492569;28;20209;-78
2021/05/11 22:11:41;;;;;;;18.07;13.47;;;;;11.30;100620.00;;;;10483578;28;20220;-77
2021/05/11 22:16:43;;;;;;;18.20;13.80;;;;;11.20;100615.00;;;;10453601;28;20685;-77
2021/05/11 22:21:45;;;;;;;19.27;14.13;;;;;11.20;100621.00;;;;10427821;28;20201;-77
2021/05/11 22:26:47;;;;;;;19.80;14.97;;;;;11.20;100619.00;;;;10440406;28;20211;-77
2021/05/11 22:31:49;;;;;;;19.47;14.60;;;;;11.30;100625.00;;;;10441084;28;20201;-77
2021/05/11 22:36:51;;;;;;;22.63;15.00;;;;;11.30;100620.00;;;;10482966;28;20255;-77
2021/05/11 22:41:55;;;;;;;20.67;14.67;;;;;11.30;100623.00;;;;10502078;28;20290;-77
2021/05/11 22:46:57;;;;;;;17.27;14.23;;;;;11.20;100618.00;;;;10506663;28;20197;-77
2021/05/11 22:51:59;;;;;;;22.17;14.70;;;;;11.20;100623.00;;;;10490410;28;20200;-77
2021/05/11 22:57:01;;;;;;;19.67;14.70;;;;;11.10;100610.00;;;;10506084;28;20202;-77
2021/05/11 23:02:05;;;;;;;25.53;16.97;;;;;11.20;100617.00;;;;10472551;28;20193;-77
2021/05/11 23:07:07;;;;;;;23.50;17.00;;;;;11.20;100617.00;;;;10455734;28;20229;-77
2021/05/11 23:12:09;;;;;;;28.17;17.00;;;;;11.20;100602.00;;;;10488556;28;20538;-77
2021/05/11 23:17:12;;;;;;;20.93;16.33;;;;;11.20;100605.00;;;;10522674;28;20197;-77
2021/05/11 23:22:13;;;;;;;22.43;16.63;;;;;11.10;100608.00;;;;10489764;28;20193;-77
2021/05/11 23:27:15;;;;;;;23.33;16.80;;;;;11.10;100604.00;;;;10466231;28;20214;-78
2021/05/11 23:32:17;;;;;;;22.83;16.77;;;;;11.10;100599.00;;;;10480344;28;20280;-78
2021/05/11 23:37:19;;;;;;;20.13;15.93;;;;;11.10;100599.00;;;;10488163;28;20228;-77
2021/05/11 23:42:21;;;;;;;18.47;14.97;;;;;11.10;100601.00;;;;10504784;28;20649;-78
2021/05/11 23:47:23;;;;;;;20.93;15.43;;;;;11.00;100609.00;;;;10487991;28;20558;-77
2021/05/11 23:52:25;;;;;;;16.30;14.57;;;;;11.00;100617.00;;;;10488547;28;20196;-77
2021/05/11 23:57:26;;;;;;;18.60;13.07;;;;;11.00;100611.00;;;;10487576;28;20240;-78
